Time;durP1;ratioP1;P1;durP2;ratioP2;P2;SDS_P1;SDS_P2;PMS_P1;PMS_P2;Temp;Humidity;BMP_temperature;BMP_pressure;BME280_temperature;BME280_humidity;BME280_pressure;Samples;Min_cycle;Max_cycle;Signal;HPM_P1;HPM_P2
2023/02/11 00:02:26;;;;;;;232.68;211.35;;;;;;;4.77;77.06;102958.00;4976675;28;20039;-72
2023/02/11 00:04:52;;;;;;;237.02;214.63;;;;;;;4.75;77.19;102954.72;4969175;28;20036;-72
2023/02/11 00:07:17;;;;;;;246.13;225.18;;;;;;;4.70;77.82;102962.38;4980483;28;20038;-73
2023/02/11 00:09:43;;;;;;;244.23;223.98;;;;;;;4.70;77.95;102946.44;4979000;28;20080;-74
2023/02/11 00:12:09;;;;;;;249.13;228.05;;;;;;;4.64;78.09;102953.28;4963720;28;20038;-73
2023/02/11 00:14:34;;;;;;;239.38;216.70;;;;;;;4.65;77.73;102958.41;5008307;28;20550;-71
2023/02/11 00:17:03;;;;;;;246.05;225.25;;;;;;;4.71;78.05;102953.41;4976287;28;20041;-72
2023/02/11 00:19:29;;;;;;;230.57;209.63;;;;;;;4.75;77.58;102946.75;4994082;28;20030;-71
2023/02/11 00:21:57;;;;;;;249.90;228.10;;;;;;;4.74;78.03;102939.78;4964739;28;20046;-71
2023/02/11 00:24:22;;;;;;;245.75;224.80;;;;;;;4.71;78.64;102943.63;4977639;28;20038;-72
2023/02/11 00:26:48;;;;;;;252.30;230.45;;;;;;;4.73;78.06;102935.47;4967699;28;20044;-75
2023/02/11 00:29:14;;;;;;;248.45;226.63;;;;;;;4.71;78.57;102956.06;4965461;28;20472;-73
2023/02/11 00:31:40;;;;;;;248.52;227.13;;;;;;;4.71;78.71;102954.22;4976038;28;20065;-72
2023/02/11 00:34:05;;;;;;;249.63;227.85;;;;;;;4.75;79.49;102946.75;4980136;28;20092;-73
2023/02/11 00:36:31;;;;;;;250.10;228.52;;;;;;;4.61;80.14;102943.88;4985443;28;20065;-74
2023/02/11 00:38:57;;;;;;;235.43;213.35;;;;;;;4.57;80.11;102944.38;4976422;28;20242;-74
2023/02/11 00:41:23;;;;;;;231.98;210.15;;;;;;;4.66;79.86;102946.78;4948389;28;20031;-72
2023/02/11 00:43:50;;;;;;;237.65;215.43;;;;;;;4.70;79.43;102941.97;4946325;28;20034;-72
2023/02/11 00:46:17;;;;;;;254.48;232.35;;;;;;;4.77;79.31;102936.78;4960628;28;20537;-72
2023/02/11 00:48:43;;;;;;;249.15;227.80;;;;;;;4.69;79.95;102944.81;4960737;28;20112;-74
2023/02/11 00:51:10;;;;;;;237.05;215.20;;;;;;;4.64;80.61;102948.81;4977635;28;20476;-74
2023/02/11 00:53:35;;;;;;;249.50;227.98;;;;;;;4.64;81.09;102932.88;4962034;28;20464;-73
2023/02/11 00:56:01;;;;;;;248.57;226.95;;;;;;;4.55;81.76;102947.22;4964249;28;20128;-73
2023/02/11 00:58:28;;;;;;;250.25;228.15;;;;;;;4.58;82.27;102943.38;4952276;28;20078;-72
2023/02/11 01:00:54;;;;;;;240.00;217.85;;;;;;;4.48;82.33;102937.47;4981970;28;20117;-72
2023/02/11 01:03:20;;;;;;;240.98;217.98;;;;;;;4.56;82.53;102937.41;4987508;28;20045;-71
2023/02/11 01:05:47;;;;;;;237.82;215.85;;;;;;;4.51;82.64;102922.03;4959927;28;20034;-73
2023/02/11 01:08:12;;;;;;;253.55;231.43;;;;;;;4.54;82.20;102913.72;4992102;28;20045;-72
2023/02/11 01:10:38;;;;;;;238.52;216.10;;;;;;;4.49;82.60;102924.03;4952373;28;20038;-73
2023/02/11 01:13:05;;;;;;;236.23;214.38;;;;;;;4.55;82.61;102917.19;4943083;28;20049;-74
2023/02/11 01:15:31;;;;;;;240.13;217.48;;;;;;;4.61;82.47;102909.34;4972357;28;20049;-71
2023/02/11 01:17:58;;;;;;;237.30;215.30;;;;;;;4.63;82.61;102910.00;4982123;28;20602;-71
2023/02/11 01:20:27;;;;;;;236.07;213.75;;;;;;;4.64;82.75;102901.03;4966503;28;20203;-72
2023/02/11 01:22:52;;;;;;;251.70;229.20;;;;;;;4.65;82.92;102907.97;4946641;28;20045;-72
2023/02/11 01:25:18;;;;;;;239.50;217.02;;;;;;;4.63;83.11;102894.06;4998671;28;20039;-74
2023/02/11 01:27:44;;;;;;;250.93;229.27;;;;;;;4.70;82.66;102880.09;4966706;28;20052;-72
2023/02/11 01:30:12;;;;;;;249.50;227.75;;;;;;;4.67;83.08;102889.22;4968419;28;20685;-74
2023/02/11 01:32:38;;;;;;;238.82;216.15;;;;;;;4.72;83.01;102886.03;4982545;28;20037;-73
2023/02/11 01:35:05;;;;;;;240.57;217.60;;;;;;;4.68;83.42;102888.25;4964672;28;20038;-73
2023/02/11 01:37:34;;;;;;;237.70;215.43;;;;;;;4.74;83.43;102890.19;4964717;28;20031;-73
2023/02/11 01:40:01;;;;;;;252.18;230.43;;;;;;;4.78;83.20;102888.81;4969473;28;20058;-73
2023/02/11 01:42:31;;;;;;;238.15;215.88;;;;;;;4.77;83.14;102884.50;4984676;28;20038;-73
2023/02/11 01:45:01;;;;;;;240.95;218.35;;;;;;;4.77;83.33;102881.03;4961933;28;20039;-73
2023/02/11 01:47:26;;;;;;;250.20;228.25;;;;;;;4.78;83.06;102878.19;4979713;28;20045;-72
2023/02/11 01:49:58;;;;;;;247.68;226.40;;;;;;;4.81;83.20;102863.72;4987209;28;21340;-72
2023/02/11 01:52:26;;;;;;;238.45;215.95;;;;;;;4.78;83.48;102864.91;4964465;28;20035;-74
2023/02/11 01:57:56;;;;;;;;;;;;;;;4.79;83.88;102860.44;4972958;28;20034;-73
2023/02/11 02:00:29;;;;;;;255.68;232.82;;;;;;;4.75;84.21;102843.22;4967701;28;20315;-71
2023/02/11 02:03:21;;;;;;;252.82;230.77;;;;;;;4.74;84.12;102854.81;4967068;28;20073;-72
2023/02/11 02:05:57;;;;;;;257.20;234.88;;;;;;;4.66;84.60;102845.09;4968910;28;20058;-73
2023/02/11 02:08:33;;;;;;;239.68;217.23;;;;;;;4.68;84.79;102847.59;4964448;28;20038;-72
2023/02/11 02:11:01;;;;;;;236.45;214.27;;;;;;;4.78;84.56;102850.81;4980336;28;20057;-73
2023/02/11 02:13:29;;;;;;;236.40;214.38;;;;;;;4.75;84.31;102845.88;4965138;28;20724;-72
2023/02/11 02:15:58;;;;;;;234.18;212.02;;;;;;;4.70;84.66;102850.91;4980310;28;20100;-73
2023/02/11 02:18:35;;;;;;;247.93;226.50;;;;;;;4.76;84.39;102850.19;4967436;28;20041;-71
2023/02/11 02:21:44;;;;;;;238.38;216.15;;;;;;;4.69;84.36;102835.97;4967268;28;20121;-73
2023/02/11 02:24:43;;;;;;;254.70;232.68;;;;;;;4.71;84.57;102832.13;4966534;28;20753;-73
2023/02/11 02:27:12;;;;;;;248.27;226.40;;;;;;;4.81;84.19;102842.47;4975845;28;20038;-73
2023/02/11 02:29:38;;;;;;;243.50;222.50;;;;;;;4.84;83.79;102836.84;4987784;28;20558;-72
2023/02/11 02:32:41;;;;;;;240.30;219.75;;;;;;;4.92;83.74;102845.53;4952678;28;20042;-74
2023/02/11 02:35:36;;;;;;;245.07;223.90;;;;;;;4.87;83.82;102836.47;4979622;28;20516;-72
2023/02/11 02:38:20;;;;;;;243.93;223.18;;;;;;;4.91;83.65;102827.97;4967080;28;20045;-73
2023/02/11 02:40:55;;;;;;;243.65;222.23;;;;;;;4.93;83.93;102830.44;4977608;28;20053;-74
2023/02/11 02:43:24;;;;;;;245.15;223.43;;;;;;;4.97;83.85;102831.72;4984160;28;20103;-72
2023/02/11 02:45:50;;;;;;;241.02;220.15;;;;;;;4.88;83.63;102816.91;4977926;28;20062;-73
2023/02/11 02:48:34;;;;;;;242.13;220.20;;;;;;;4.97;83.65;102826.41;4980291;28;20074;-73
2023/02/11 02:51:41;;;;;;;248.32;226.75;;;;;;;4.94;83.95;102821.44;4985462;28;20483;-72
2023/02/11 02:54:39;;;;;;;247.77;225.65;;;;;;;4.98;83.76;102828.06;4946416;28;20044;-73
2023/02/11 02:57:26;;;;;;;229.35;208.13;;;;;;;5.01;83.54;102827.69;4980326;28;20500;-72
2023/02/11 03:00:18;;;;;;;238.45;217.95;;;;;;;5.05;83.62;102828.97;4980088;28;20038;-73
2023/02/11 03:03:12;;;;;;;240.27;219.10;;;;;;;5.00;83.93;102849.94;4977212;28;20113;-72
2023/02/11 03:05:48;;;;;;;240.85;219.45;;;;;;;5.02;84.22;102829.38;4985350;28;20045;-73
2023/02/11 03:08:23;;;;;;;230.32;208.82;;;;;;;5.01;84.21;102827.69;4987769;28;20068;-72
2023/02/11 03:10:51;;;;;;;230.25;208.23;;;;;;;4.94;84.94;102832.06;5003376;28;20763;-74
2023/02/11 03:13:21;;;;;;;246.38;224.48;;;;;;;4.91;85.20;102829.78;5002110;28;20039;-73
2023/02/11 03:15:50;;;;;;;241.02;220.05;;;;;;;4.88;85.85;102825.69;5008188;28;20116;-72
2023/02/11 03:18:21;;;;;;;229.95;208.55;;;;;;;4.96;85.68;102835.41;5001480;28;20084;-72
2023/02/11 03:20:50;;;;;;;244.48;222.68;;;;;;;4.92;85.64;102834.91;5004715;28;20044;-72
2023/02/11 03:23:31;;;;;;;231.52;209.50;;;;;;;4.92;85.82;102834.09;4999834;28;20052;-74
2023/02/11 03:26:03;;;;;;;234.88;212.35;;;;;;;4.97;85.72;102821.09;5003255;28;20065;-74
2023/02/11 03:28:54;;;;;;;232.48;210.02;;;;;;;4.90;86.02;102817.53;5005478;28;20495;-72
2023/02/11 03:31:33;;;;;;;228.00;206.20;;;;;;;4.89;86.14;102815.88;5013103;28;20133;-74
2023/02/11 03:34:17;;;;;;;240.63;219.60;;;;;;;4.94;85.81;102805.53;5008564;28;20052;-73
2023/02/11 03:37:06;;;;;;;239.05;218.10;;;;;;;4.93;85.75;102806.53;5005541;28;20033;-73
2023/02/11 03:39:36;;;;;;;241.65;221.05;;;;;;;5.00;85.47;102798.66;5001274;28;20080;-73
2023/02/11 03:42:06;;;;;;;235.02;213.90;;;;;;;4.90;85.91;102791.81;5021756;28;20042;-72
2023/02/11 03:44:40;;;;;;;236.15;215.73;;;;;;;5.04;85.21;102790.16;5007640;28;20132;-74
2023/02/11 03:47:09;;;;;;;221.55;200.45;;;;;;;5.03;85.39;102793.81;4979278;28;20785;-73
2023/02/11 03:49:38;;;;;;;237.95;217.23;;;;;;;5.02;85.48;102792.19;4997837;28;20093;-74
2023/02/11 03:52:07;;;;;;;224.07;202.80;;;;;;;5.06;84.87;102800.59;4981381;28;20038;-74
2023/02/11 03:54:34;;;;;;;229.63;210.27;;;;;;;5.12;84.76;102794.56;5001930;28;20030;-73
2023/02/11 03:57:03;;;;;;;218.68;198.27;;;;;;;5.15;84.62;102792.38;4993918;28;20125;-73
2023/02/11 03:59:28;;;;;;;214.77;194.98;;;;;;;5.23;83.78;102796.75;4984367;28;20053;-73
2023/02/11 04:01:54;;;;;;;232.40;212.73;;;;;;;5.22;83.90;102784.50;5002759;28;20042;-73
2023/02/11 04:04:20;;;;;;;231.20;211.35;;;;;;;5.27;83.62;102783.91;4996150;28;20038;-72
2023/02/11 04:06:46;;;;;;;229.32;210.00;;;;;;;5.32;83.26;102787.69;4998521;28;20677;-75
2023/02/11 04:09:17;;;;;;;228.55;208.90;;;;;;;5.34;83.29;102779.50;5006872;28;20133;-75
2023/02/11 04:11:42;;;;;;;222.55;204.40;;;;;;;5.40;82.89;102784.09;5006249;28;20118;-73
2023/02/11 04:14:08;;;;;;;218.52;198.68;;;;;;;5.45;82.70;102787.84;5001566;28;20076;-72
2023/02/11 04:16:34;;;;;;;227.65;208.48;;;;;;;5.47;82.85;102790.31;5006561;28;20025;-76
2023/02/11 04:19:00;;;;;;;226.85;207.38;;;;;;;5.50;82.69;102778.50;4988900;28;20768;-75
2023/02/11 04:21:26;;;;;;;225.40;206.85;;;;;;;5.54;82.14;102782.41;4984333;28;20088;-74
2023/02/11 04:23:51;;;;;;;212.52;192.48;;;;;;;5.64;82.13;102783.78;5004386;28;20045;-74
2023/02/11 04:26:17;;;;;;;224.10;205.10;;;;;;;5.52;82.15;102801.22;5008756;28;20037;-74
2023/02/11 04:28:43;;;;;;;210.55;191.50;;;;;;;5.58;82.26;102797.81;5004716;28;20037;-74
2023/02/11 04:31:10;;;;;;;224.95;205.98;;;;;;;5.61;81.94;102801.94;5000097;28;20438;-75
2023/02/11 04:33:36;;;;;;;209.85;190.57;;;;;;;5.68;81.59;102794.84;5001416;28;20083;-75
2023/02/11 04:36:02;;;;;;;210.02;191.32;;;;;;;5.68;82.08;102793.03;4986622;28;20052;-74
2023/02/11 04:38:27;;;;;;;210.80;191.50;;;;;;;5.63;81.77;102797.28;5004121;28;20034;-73
2023/02/11 04:40:53;;;;;;;224.40;205.10;;;;;;;5.67;81.49;102799.34;5003665;28;20126;-76
2023/02/11 04:43:19;;;;;;;224.27;205.18;;;;;;;5.67;81.54;102807.31;4999675;28;20034;-75
2023/02/11 04:45:44;;;;;;;223.73;205.07;;;;;;;5.73;81.33;102793.28;5001279;28;20383;-73
2023/02/11 04:48:10;;;;;;;210.95;192.15;;;;;;;5.73;81.28;102793.28;4999458;28;20042;-73
2023/02/11 04:50:36;;;;;;;221.43;203.38;;;;;;;5.75;81.13;102783.28;5001013;28;20041;-74
2023/02/11 04:53:02;;;;;;;224.05;205.75;;;;;;;5.74;82.25;102796.78;5003864;28;20060;-75
2023/02/11 04:55:27;;;;;;;223.40;204.68;;;;;;;5.72;81.29;102798.81;4987050;28;20066;-72
2023/02/11 04:57:54;;;;;;;207.02;188.02;;;;;;;5.68;81.65;102813.47;4980446;28;20124;-73
2023/02/11 05:00:20;;;;;;;208.77;189.40;;;;;;;5.67;81.86;102802.00;5005708;28;20029;-75
2023/02/11 05:02:45;;;;;;;223.02;204.90;;;;;;;5.72;81.66;102806.78;4983954;28;20026;-75
2023/02/11 05:05:11;;;;;;;211.52;192.15;;;;;;;5.72;81.75;102804.94;5005809;28;20048;-74
2023/02/11 05:07:36;;;;;;;207.13;188.25;;;;;;;5.72;81.67;102796.97;5003047;28;20046;-73
2023/02/11 05:10:03;;;;;;;207.93;189.13;;;;;;;5.74;81.54;102802.91;4990592;28;20038;-73
2023/02/11 05:12:28;;;;;;;219.00;201.25;;;;;;;5.78;81.32;102813.19;5009277;28;20088;-73
2023/02/11 05:14:54;;;;;;;207.15;188.68;;;;;;;5.81;81.91;102826.09;5007207;28;20037;-75
2023/02/11 05:17:20;;;;;;;208.13;189.13;;;;;;;5.68;82.34;102814.28;5010297;28;20037;-75
2023/02/11 05:19:48;;;;;;;206.38;187.68;;;;;;;5.80;81.81;102813.81;5026768;28;20128;-75
2023/02/11 05:22:13;;;;;;;210.05;190.93;;;;;;;5.72;82.26;102801.47;4990679;28;20726;-75
2023/02/11 05:24:39;;;;;;;206.27;187.85;;;;;;;5.69;82.50;102797.34;4992559;28;20037;-74
2023/02/11 05:27:04;;;;;;;210.98;191.45;;;;;;;5.70;82.68;102801.66;5002642;28;20044;-74
2023/02/11 05:29:30;;;;;;;219.80;201.30;;;;;;;5.75;82.66;102804.56;5003129;28;20056;-74
2023/02/11 05:31:58;;;;;;;220.10;201.95;;;;;;;5.66;83.18;102808.34;5003290;28;20033;-76
2023/02/11 05:34:24;;;;;;;220.02;201.27;;;;;;;5.59;83.68;102812.75;5030002;28;20534;-73
2023/02/11 05:36:49;;;;;;;206.50;187.52;;;;;;;5.66;83.46;102791.56;5002255;28;20065;-73
2023/02/11 05:39:15;;;;;;;225.18;206.80;;;;;;;5.67;83.73;102791.38;4981574;28;20025;-74
2023/02/11 05:41:40;;;;;;;208.45;189.50;;;;;;;5.77;83.39;102806.22;5004846;28;20049;-74
2023/02/11 05:44:06;;;;;;;223.18;204.10;;;;;;;5.66;84.13;102789.72;4985308;28;20084;-74
2023/02/11 05:46:32;;;;;;;209.32;189.82;;;;;;;5.67;83.82;102793.22;5004757;28;21441;-73
2023/02/11 05:48:58;;;;;;;206.65;187.75;;;;;;;5.68;84.01;102786.88;4993654;28;20495;-73
2023/02/11 05:51:24;;;;;;;209.23;190.50;;;;;;;5.69;83.76;102781.41;5034888;28;20030;-74
2023/02/11 05:53:49;;;;;;;208.57;189.10;;;;;;;5.71;84.05;102768.72;5004481;28;20108;-73
2023/02/11 05:56:15;;;;;;;213.73;193.88;;;;;;;5.65;84.53;102771.31;5003568;28;20034;-73
2023/02/11 05:58:40;;;;;;;209.65;190.60;;;;;;;5.67;84.08;102764.78;5002658;28;20045;-73
2023/02/11 06:01:06;;;;;;;226.48;207.20;;;;;;;5.71;84.50;102766.06;5018297;28;20065;-74
2023/02/11 06:03:32;;;;;;;209.82;190.57;;;;;;;5.67;84.44;102769.28;5009774;28;20717;-75
2023/02/11 06:05:57;;;;;;;209.82;189.90;;;;;;;5.70;84.57;102774.25;4985094;28;20123;-74
2023/02/11 06:08:23;;;;;;;222.85;204.80;;;;;;;5.73;84.36;102774.69;4982087;28;20053;-74
2023/02/11 06:10:49;;;;;;;216.77;198.65;;;;;;;5.71;84.28;102773.22;4986264;28;20035;-75
2023/02/11 06:13:17;;;;;;;221.18;203.00;;;;;;;5.74;84.36;102775.50;4990256;28;20033;-74
2023/02/11 06:15:43;;;;;;;206.20;187.30;;;;;;;5.66;84.46;102773.78;4987082;28;20052;-73
2023/02/11 06:18:09;;;;;;;222.57;204.25;;;;;;;5.67;84.43;102772.75;4991215;28;20034;-73
2023/02/11 06:20:34;;;;;;;204.75;186.73;;;;;;;5.74;84.34;102763.03;4990497;28;20046;-73
2023/02/11 06:23:00;;;;;;;220.80;202.93;;;;;;;5.77;84.52;102764.50;4973213;28;20050;-73
2023/02/11 06:25:25;;;;;;;204.35;186.30;;;;;;;5.79;84.50;102754.50;4985606;28;20042;-73
2023/02/11 06:27:53;;;;;;;221.68;203.88;;;;;;;5.82;84.11;102751.44;4972387;28;20035;-73
2023/02/11 06:30:19;;;;;;;205.13;187.30;;;;;;;5.74;84.52;102733.78;5002903;28;20403;-72
2023/02/11 06:32:45;;;;;;;220.82;202.93;;;;;;;5.79;84.58;102737.72;5001194;28;20042;-74
2023/02/11 06:35:11;;;;;;;208.02;189.63;;;;;;;5.79;84.27;102738.53;4985727;28;20443;-73
2023/02/11 06:37:37;;;;;;;220.13;202.13;;;;;;;5.77;84.96;102747.72;4986463;28;20649;-75
2023/02/11 06:40:03;;;;;;;224.45;206.40;;;;;;;5.82;84.38;102764.75;4985444;28;20030;-73
2023/02/11 06:42:31;;;;;;;220.13;202.48;;;;;;;5.92;83.96;102770.63;4987406;28;20053;-73
2023/02/11 06:44:56;;;;;;;214.13;197.32;;;;;;;5.92;84.16;102780.44;4986819;28;20117;-73
2023/02/11 06:47:22;;;;;;;204.55;186.65;;;;;;;5.99;84.73;102779.50;4966346;28;21283;-73
2023/02/11 06:49:47;;;;;;;205.05;187.23;;;;;;;5.97;84.15;102786.03;4984366;28;20042;-74
2023/02/11 06:52:13;;;;;;;208.82;190.65;;;;;;;5.95;84.07;102793.34;4999705;28;20034;-73
2023/02/11 06:54:39;;;;;;;202.02;184.57;;;;;;;5.97;83.88;102788.69;4984835;28;20137;-73
2023/02/11 06:57:05;;;;;;;203.52;185.40;;;;;;;5.98;84.27;102793.81;4989971;28;20128;-74
2023/02/11 06:59:30;;;;;;;217.02;200.02;;;;;;;5.92;84.37;102799.88;4985923;28;20031;-74
2023/02/11 07:01:56;;;;;;;202.27;184.68;;;;;;;5.95;84.58;102796.00;4984856;28;20034;-74
2023/02/11 07:04:21;;;;;;;212.60;196.27;;;;;;;6.10;84.09;102807.44;4985623;28;20705;-74
2023/02/11 07:06:47;;;;;;;201.70;183.98;;;;;;;5.99;84.75;102815.91;5006776;28;20077;-73
2023/02/11 07:09:13;;;;;;;214.55;197.82;;;;;;;5.99;84.59;102807.94;4983263;28;20634;-74
2023/02/11 07:11:38;;;;;;;205.05;187.30;;;;;;;5.97;85.38;102807.31;5005413;28;20026;-74
2023/02/11 07:14:07;;;;;;;203.57;186.02;;;;;;;6.07;85.19;102807.81;4991354;28;20045;-74
2023/02/11 07:16:33;;;;;;;215.18;197.85;;;;;;;5.97;85.70;102812.63;4987677;28;20042;-75
2023/02/11 07:18:59;;;;;;;216.60;199.48;;;;;;;5.97;85.71;102817.94;4991450;28;20114;-74
2023/02/11 07:21:24;;;;;;;217.63;200.35;;;;;;;5.84;86.48;102823.06;4974009;28;20132;-75
2023/02/11 07:23:50;;;;;;;214.80;198.13;;;;;;;5.91;85.90;102818.69;4989643;28;20088;-74
2023/02/11 07:26:19;;;;;;;217.98;200.63;;;;;;;5.96;86.18;102816.25;4979667;28;20657;-75
2023/02/11 07:28:45;;;;;;;213.80;196.63;;;;;;;5.92;86.56;102820.34;5001713;28;20463;-74
2023/02/11 07:31:16;;;;;;;208.32;189.98;;;;;;;5.90;86.36;102819.69;4980820;28;20035;-73
2023/02/11 07:33:44;;;;;;;220.32;202.63;;;;;;;5.90;86.82;102825.81;5001216;28;20031;-73
2023/02/11 07:36:12;;;;;;;215.75;198.43;;;;;;;5.88;86.79;102817.19;4976849;28;20049;-74
2023/02/11 07:38:38;;;;;;;201.98;184.45;;;;;;;5.89;86.32;102826.84;4993585;28;20034;-73
2023/02/11 07:41:07;;;;;;;214.55;197.57;;;;;;;5.97;86.40;102820.59;4983878;28;20203;-72
2023/02/11 07:43:34;;;;;;;201.63;184.27;;;;;;;6.02;86.65;102826.16;5000761;28;20030;-74
2023/02/11 07:46:04;;;;;;;206.40;188.27;;;;;;;6.01;86.63;102835.16;4970505;28;20133;-74
2023/02/11 07:48:29;;;;;;;223.45;204.75;;;;;;;6.12;86.29;102831.19;4983959;28;20516;-75
2023/02/11 07:50:55;;;;;;;214.80;197.38;;;;;;;6.11;86.31;102838.34;4979412;28;20045;-74
2023/02/11 07:53:21;;;;;;;209.60;190.55;;;;;;;6.14;86.37;102832.63;4982891;28;20040;-74
2023/02/11 07:55:46;;;;;;;202.65;184.98;;;;;;;6.17;86.05;102836.78;4967288;28;20502;-74
2023/02/11 07:58:12;;;;;;;206.18;188.18;;;;;;;6.17;86.24;102850.06;4989935;28;20544;-73
2023/02/11 08:00:38;;;;;;;216.52;199.63;;;;;;;6.16;86.56;102869.69;4988912;28;20050;-73
2023/02/11 08:03:04;;;;;;;202.15;184.63;;;;;;;6.13;86.67;102865.56;4978929;28;20320;-71
2023/02/11 08:05:29;;;;;;;209.55;193.32;;;;;;;6.28;85.93;102871.66;4984178;28;20038;-73
2023/02/11 08:07:55;;;;;;;202.05;184.43;;;;;;;6.25;85.88;102873.91;4992519;28;20411;-73
2023/02/11 08:10:20;;;;;;;203.90;185.95;;;;;;;6.23;86.18;102865.25;4980799;28;20050;-73
2023/02/11 08:12:46;;;;;;;201.77;184.23;;;;;;;6.39;85.65;102861.56;5003451;28;20033;-73
2023/02/11 08:15:12;;;;;;;210.07;193.48;;;;;;;6.33;85.86;102867.63;4981854;28;20519;-73
2023/02/11 08:17:38;;;;;;;198.88;181.98;;;;;;;6.38;85.72;102858.06;4969280;28;20045;-72
2023/02/11 08:20:05;;;;;;;218.43;200.73;;;;;;;6.36;86.13;102870.72;4966587;28;20061;-72
2023/02/11 08:22:32;;;;;;;200.32;182.93;;;;;;;6.38;85.77;102863.38;4983894;28;20042;-72
2023/02/11 08:24:58;;;;;;;208.77;192.32;;;;;;;6.39;85.72;102864.22;4974142;28;20129;-73
2023/02/11 08:27:25;;;;;;;210.57;193.95;;;;;;;6.34;85.90;102872.75;4990442;28;20768;-73
2023/02/11 08:29:54;;;;;;;202.85;185.10;;;;;;;6.42;85.53;102882.44;4981379;28;20034;-73
2023/02/11 08:32:20;;;;;;;208.43;189.90;;;;;;;6.41;85.63;102880.81;4987598;28;20096;-73
2023/02/11 08:34:49;;;;;;;210.60;194.02;;;;;;;6.45;86.09;102885.56;4967462;28;20125;-72
2023/02/11 08:37:14;;;;;;;200.15;183.07;;;;;;;6.44;85.83;102888.44;4999046;28;20500;-72
2023/02/11 08:39:40;;;;;;;212.68;195.45;;;;;;;6.41;85.88;102894.13;4999770;28;20034;-73
2023/02/11 08:42:08;;;;;;;209.80;193.35;;;;;;;6.43;85.56;102898.22;4980546;28;20069;-72
2023/02/11 08:44:34;;;;;;;209.85;193.38;;;;;;;6.49;86.14;102900.13;4987378;28;20239;-74
2023/02/11 08:47:00;;;;;;;205.35;187.02;;;;;;;6.53;86.00;102903.25;4984220;28;20117;-74
2023/02/11 08:49:26;;;;;;;220.10;202.55;;;;;;;6.42;85.70;102901.09;4980882;28;20166;-73
2023/02/11 08:51:53;;;;;;;210.50;193.82;;;;;;;6.73;85.12;102909.59;4971634;28;20034;-74
2023/02/11 08:54:18;;;;;;;196.25;179.57;;;;;;;6.66;85.48;102913.22;4981143;28;20660;-75
2023/02/11 08:56:44;;;;;;;208.63;192.25;;;;;;;6.67;85.32;102913.00;4982846;28;20113;-74
2023/02/11 08:59:13;;;;;;;196.18;179.55;;;;;;;6.71;85.12;102922.28;4969897;28;20052;-75
2023/02/11 09:01:39;;;;;;;206.27;188.45;;;;;;;6.69;85.20;102918.97;4979755;28;20026;-74
2023/02/11 09:04:05;;;;;;;206.43;188.50;;;;;;;6.71;85.36;102927.59;4983113;28;20523;-73
2023/02/11 09:06:30;;;;;;;221.93;204.13;;;;;;;6.61;85.07;102926.25;4996131;28;20168;-73
2023/02/11 09:08:57;;;;;;;219.90;202.13;;;;;;;6.63;84.85;102914.41;5005051;28;20502;-73
2023/02/11 09:11:32;;;;;;;208.52;190.40;;;;;;;6.66;85.19;102913.22;5009065;28;20038;-73
2023/02/11 09:13:58;;;;;;;219.88;202.57;;;;;;;6.67;85.23;102920.19;5004390;28;20119;-72
2023/02/11 09:16:27;;;;;;;206.98;189.18;;;;;;;6.63;85.25;102919.72;5000935;28;20343;-72
2023/02/11 09:18:56;;;;;;;221.57;203.82;;;;;;;6.63;85.19;102909.06;5000981;28;20034;-73
2023/02/11 09:21:21;;;;;;;203.95;186.07;;;;;;;6.71;85.02;102900.16;5014797;28;20117;-75
2023/02/11 09:23:47;;;;;;;216.57;199.68;;;;;;;6.65;84.99;102904.41;4998843;28;20575;-74
2023/02/11 09:26:25;;;;;;;196.40;179.85;;;;;;;6.71;85.39;102919.63;5002909;28;20046;-71
2023/02/11 09:28:53;;;;;;;206.30;190.15;;;;;;;6.64;85.36;102932.03;5006378;28;20091;-72
2023/02/11 09:31:23;;;;;;;198.18;181.68;;;;;;;6.62;85.31;102944.69;4990187;28;20092;-74
2023/02/11 09:33:51;;;;;;;206.30;190.45;;;;;;;6.67;84.76;102936.97;4999668;28;20045;-74
2023/02/11 09:36:20;;;;;;;200.75;183.52;;;;;;;6.76;84.94;102957.13;4982774;28;20050;-72
2023/02/11 09:38:47;;;;;;;201.70;183.88;;;;;;;6.88;84.43;102948.66;4988732;28;20037;-73
2023/02/11 09:41:22;;;;;;;216.00;198.75;;;;;;;6.83;84.67;102943.88;4983205;28;20033;-74
2023/02/11 09:43:53;;;;;;;217.45;200.45;;;;;;;6.91;84.40;102929.59;4987330;28;20045;-73
2023/02/11 09:46:23;;;;;;;219.75;202.13;;;;;;;6.81;84.69;102936.09;4988312;28;20053;-73
2023/02/11 09:48:52;;;;;;;204.27;186.38;;;;;;;6.95;84.38;102933.53;4999836;28;20403;-73
2023/02/11 09:51:24;;;;;;;217.80;200.68;;;;;;;6.89;84.36;102942.28;5018147;28;20061;-74
2023/02/11 09:53:55;;;;;;;203.18;185.48;;;;;;;7.00;84.19;102942.63;5004031;28;20562;-75
2023/02/11 09:56:23;;;;;;;218.65;201.18;;;;;;;6.84;84.68;102945.53;4987073;28;20097;-74
2023/02/11 09:58:51;;;;;;;206.05;190.07;;;;;;;6.99;84.31;102948.97;5008392;28;20484;-73
2023/02/11 10:01:43;;;;;;;208.25;191.10;;;;;;;7.05;83.97;102950.03;5031206;28;20123;-74
2023/02/11 10:04:36;;;;;;;196.17;179.53;;;;;;;7.18;83.73;102955.47;4973820;28;20045;-73
2023/02/11 10:07:22;;;;;;;;;;;;;;;7.09;83.71;102946.78;5003377;28;20037;-74
2023/02/11 10:10:09;;;;;;;203.45;185.75;;;;;;;7.19;83.49;102953.63;5005839;28;20008;-73
2023/02/11 10:12:47;;;;;;;198.48;180.57;;;;;;;7.37;83.07;102951.28;4999538;28;20030;-73
2023/02/11 10:15:20;;;;;;;193.88;177.48;;;;;;;7.22;83.37;102959.38;4991454;28;20041;-73
2023/02/11 10:17:54;;;;;;;202.93;187.10;;;;;;;7.14;83.92;102954.22;4992871;28;20034;-74
2023/02/11 10:20:47;;;;;;;201.60;185.38;;;;;;;7.24;83.30;102954.69;4985732;28;20042;-73
2023/02/11 10:23:18;;;;;;;191.10;175.00;;;;;;;7.26;83.59;102957.19;5000029;28;20129;-73
2023/02/11 10:25:48;;;;;;;202.23;186.25;;;;;;;7.28;83.35;102953.28;5003693;28;20044;-73
2023/02/11 10:28:20;;;;;;;202.95;186.48;;;;;;;7.18;83.79;102963.47;4991595;28;20498;-74
2023/02/11 10:30:57;;;;;;;195.40;178.68;;;;;;;7.31;83.63;102966.22;4998871;28;20033;-74
2023/02/11 10:33:48;;;;;;;190.48;173.90;;;;;;;7.26;83.17;102979.31;4983589;28;20041;-73
2023/02/11 10:36:17;;;;;;;194.32;177.07;;;;;;;7.30;83.51;102972.56;4990494;28;20051;-72
2023/02/11 10:38:43;;;;;;;203.48;186.93;;;;;;;7.26;83.51;102979.31;4970889;28;20097;-73
2023/02/11 10:41:16;;;;;;;205.07;189.00;;;;;;;7.18;83.74;102976.81;5000124;28;20411;-73
2023/02/11 10:43:42;;;;;;;202.55;186.15;;;;;;;7.22;83.80;102962.06;4989146;28;20041;-71
2023/02/11 10:46:22;;;;;;;192.93;176.13;;;;;;;7.31;83.92;102968.06;5002563;28;20053;-73
2023/02/11 10:48:52;;;;;;;195.68;178.23;;;;;;;7.20;84.97;102966.75;4979779;28;20042;-72
2023/02/11 10:51:21;;;;;;;194.73;177.45;;;;;;;7.15;85.08;102963.03;4984613;28;20554;-73
2023/02/11 10:54:08;;;;;;;193.80;176.45;;;;;;;7.17;86.01;102969.78;4984125;28;20492;-73
2023/02/11 10:56:37;;;;;;;209.75;192.93;;;;;;;7.33;85.11;102968.72;5000987;28;20041;-73
2023/02/11 10:59:19;;;;;;;194.63;177.63;;;;;;;7.22;85.49;102971.91;4989442;28;20038;-74
2023/02/11 11:01:49;;;;;;;192.23;175.43;;;;;;;7.20;85.89;102966.75;5007303;28;20554;-75
2023/02/11 11:04:30;;;;;;;191.27;174.15;;;;;;;7.14;85.81;102962.19;4997402;28;20729;-75
2023/02/11 11:07:19;;;;;;;192.27;175.32;;;;;;;7.21;86.11;102946.25;4997980;28;20049;-74
2023/02/11 11:09:58;;;;;;;193.40;176.57;;;;;;;7.37;85.98;102946.78;5000094;28;20549;-74
2023/02/11 11:12:25;;;;;;;203.68;187.38;;;;;;;7.52;85.11;102943.19;4997598;28;20034;-74
2023/02/11 11:14:55;;;;;;;202.90;186.75;;;;;;;7.61;85.46;102939.38;5001902;28;20226;-74
2023/02/11 11:17:21;;;;;;;191.38;174.30;;;;;;;7.54;85.41;102943.84;4999681;28;20049;-73